createdAt,value
2023-05-04T00:00:29.364Z,194.97
2023-05-04T00:02:57.160Z,199.43
2023-05-04T00:05:24.180Z,194.50
2023-05-04T00:07:51.277Z,197.50
2023-05-04T00:10:18.443Z,197.93
2023-05-04T00:12:46.415Z,200.83
2023-05-04T00:15:13.427Z,192.37
2023-05-04T00:17:40.561Z,193.17
2023-05-04T00:20:08.281Z,195.60
2023-05-04T00:22:35.319Z,198.50
2023-05-04T00:25:02.348Z,193.50
2023-05-04T00:27:29.285Z,194.07
2023-05-04T00:29:56.327Z,193.83
2023-05-04T00:32:23.431Z,197.17
2023-05-04T00:34:50.601Z,193.50
2023-05-04T00:37:17.689Z,191.23
2023-05-04T00:39:44.699Z,198.27
2023-05-04T00:42:12.051Z,196.17
2023-05-04T00:44:41.448Z,194.23
2023-05-04T00:47:09.540Z,190.60
2023-05-04T00:49:36.724Z,196.67
2023-05-04T00:52:05.443Z,192.17
2023-05-04T00:54:33.215Z,189.77
2023-05-04T00:57:00.332Z,192.10
2023-05-04T00:59:27.266Z,197.40
2023-05-04T01:01:54.227Z,193.57
2023-05-04T01:04:21.133Z,190.50
2023-05-04T01:07:32.188Z,195.03
2023-05-04T01:10:18.838Z,190.20
2023-05-04T01:13:06.336Z,189.97
2023-05-04T01:15:35.587Z,193.40
2023-05-04T01:18:02.929Z,191.70
2023-05-04T01:20:30.513Z,193.63
2023-05-04T01:22:57.850Z,194.17
2023-05-04T01:25:38.393Z,192.67
2023-05-04T01:28:12.285Z,187.10
2023-05-04T01:30:57.063Z,188.23
2023-05-04T01:33:24.785Z,192.00
2023-05-04T01:35:52.017Z,192.30
2023-05-04T01:38:19.041Z,189.93
2023-05-04T01:40:46.053Z,192.73
2023-05-04T01:43:13.002Z,193.77
2023-05-04T01:45:39.960Z,198.13
2023-05-04T01:48:07.078Z,192.33
2023-05-04T01:50:34.114Z,193.53
2023-05-04T01:53:02.460Z,188.07
2023-05-04T01:55:29.806Z,191.00
2023-05-04T01:57:57.197Z,188.83
2023-05-04T02:00:24.283Z,204.50
2023-05-04T02:02:51.640Z,187.57
2023-05-04T02:05:20.140Z,189.03
2023-05-04T02:07:49.155Z,200.20
2023-05-04T02:10:16.591Z,192.57
2023-05-04T02:12:43.787Z,191.43
2023-05-04T02:15:11.665Z,186.97
2023-05-04T02:17:38.746Z,196.60
2023-05-04T02:20:07.207Z,186.80
2023-05-04T02:22:35.928Z,191.67
2023-05-04T02:25:03.413Z,192.73
2023-05-04T02:27:30.491Z,194.43
2023-05-04T02:30:00.541Z,187.57
2023-05-04T02:32:28.076Z,193.30
2023-05-04T02:34:55.084Z,193.77
2023-05-04T02:37:22.397Z,191.80
2023-05-04T02:39:49.408Z,187.90
2023-05-04T02:42:17.225Z,185.37
2023-05-04T02:44:44.535Z,198.97
2023-05-04T02:47:11.545Z,188.23
2023-05-04T02:49:38.621Z,192.97
2023-05-04T02:52:05.594Z,192.40
2023-05-04T02:54:33.109Z,196.00
2023-05-04T02:57:00.779Z,193.83
2023-05-04T02:59:27.787Z,188.63
2023-05-04T03:01:55.325Z,198.10
2023-05-04T03:04:22.762Z,194.77
2023-05-04T03:06:50.224Z,190.33
2023-05-04T03:09:17.208Z,195.13
2023-05-04T03:11:44.799Z,197.60
2023-05-04T03:14:11.926Z,191.47
2023-05-04T03:16:39.395Z,189.03
2023-05-04T03:19:06.691Z,185.73
2023-05-04T03:21:33.689Z,200.97
2023-05-04T03:24:01.055Z,190.10
2023-05-04T03:26:28.033Z,187.93
2023-05-04T03:28:55.830Z,198.83
2023-05-04T03:31:23.294Z,197.30
2023-05-04T03:33:52.509Z,191.47
2023-05-04T03:36:20.579Z,194.17
2023-05-04T03:38:47.615Z,194.80
2023-05-04T03:41:14.612Z,197.00
2023-05-04T03:43:42.114Z,188.30
2023-05-04T03:46:11.506Z,186.10
2023-05-04T03:48:39.005Z,201.27
2023-05-04T03:51:09.415Z,194.70
2023-05-04T03:53:36.451Z,193.33
2023-05-04T03:56:03.788Z,194.33
2023-05-04T03:58:31.567Z,196.03
2023-05-04T04:01:03.420Z,193.80
2023-05-04T04:03:31.591Z,198.97
2023-05-04T04:05:59.096Z,203.13
2023-05-04T04:08:26.803Z,219.50
2023-05-04T04:10:53.800Z,191.80
2023-05-04T04:13:20.873Z,197.70
2023-05-04T04:15:47.989Z,233.53
2023-05-04T04:18:14.954Z,219.27
2023-05-04T04:20:42.294Z,188.97
2023-05-04T04:23:09.621Z,201.43
2023-05-04T04:25:37.362Z,195.70
2023-05-04T04:28:04.651Z,199.23
2023-05-04T04:30:31.594Z,204.60
2023-05-04T04:32:58.568Z,207.60
2023-05-04T04:35:26.816Z,198.23
2023-05-04T04:37:53.937Z,203.33
2023-05-04T04:40:22.528Z,200.67
2023-05-04T04:42:49.917Z,205.93
2023-05-04T04:45:17.400Z,207.70
2023-05-04T04:47:45.222Z,198.83
2023-05-04T04:50:12.988Z,205.20
2023-05-04T04:52:41.391Z,200.03
2023-05-04T04:55:09.160Z,200.27
2023-05-04T04:57:36.265Z,207.00
2023-05-04T05:00:09.153Z,199.87
2023-05-04T05:02:37.025Z,209.87
2023-05-04T05:05:04.455Z,203.27
2023-05-04T05:07:32.284Z,205.47
2023-05-04T05:09:59.294Z,202.43
2023-05-04T05:12:26.701Z,211.63
2023-05-04T05:14:54.036Z,202.83
2023-05-04T05:17:20.995Z,211.40
2023-05-04T05:19:48.075Z,204.80
2023-05-04T05:22:15.117Z,211.43
2023-05-04T05:24:42.448Z,213.87
2023-05-04T05:27:09.895Z,226.17
2023-05-04T05:29:37.200Z,215.60
2023-05-04T05:32:04.492Z,219.97
2023-05-04T05:34:31.432Z,217.87
2023-05-04T05:36:58.363Z,213.30
2023-05-04T05:39:25.355Z,208.63
2023-05-04T05:41:59.368Z,215.53
2023-05-04T05:44:26.419Z,224.17
2023-05-04T05:46:53.384Z,223.17
2023-05-04T05:49:20.606Z,217.20
2023-05-04T05:51:48.046Z,207.70
2023-05-04T05:54:15.701Z,231.93
2023-05-04T05:56:42.615Z,217.63
2023-05-04T05:59:09.711Z,233.83
2023-05-04T06:01:36.608Z,217.60
2023-05-04T06:04:03.889Z,217.27
2023-05-04T06:06:31.086Z,224.60
2023-05-04T06:08:58.142Z,215.47
2023-05-04T06:11:25.315Z,208.13
2023-05-04T06:13:52.286Z,233.60
2023-05-04T06:16:19.926Z,237.70
2023-05-04T06:18:46.954Z,289.20
2023-05-04T06:21:14.540Z,231.10
2023-05-04T06:23:41.828Z,234.37
2023-05-04T06:26:08.959Z,226.27
2023-05-04T06:28:35.966Z,227.10
2023-05-04T06:31:03.730Z,227.07
2023-05-04T06:33:30.758Z,233.77
2023-05-04T06:35:59.026Z,226.50
2023-05-04T06:38:26.061Z,240.67
2023-05-04T06:40:53.081Z,227.07
2023-05-04T06:43:20.064Z,237.53
2023-05-04T06:45:47.131Z,235.83
2023-05-04T06:48:14.178Z,233.30
2023-05-04T06:50:41.186Z,238.80
2023-05-04T06:53:10.365Z,228.80
2023-05-04T06:55:38.102Z,227.93
2023-05-04T06:58:05.702Z,224.83
2023-05-04T07:00:33.012Z,249.20
2023-05-04T07:03:00.072Z,228.83
2023-05-04T07:05:27.263Z,228.27
2023-05-04T07:07:54.336Z,240.53
2023-05-04T07:10:22.014Z,227.10
2023-05-04T07:12:49.420Z,233.13
2023-05-04T07:15:16.410Z,228.47
2023-05-04T07:17:43.488Z,228.93
2023-05-04T07:20:11.537Z,219.67
2023-05-04T07:22:38.539Z,231.57
2023-05-04T07:25:06.204Z,238.33
2023-05-04T07:27:35.024Z,280.63
2023-05-04T07:30:03.060Z,225.40
2023-05-04T07:32:30.139Z,231.97
2023-05-04T07:34:57.463Z,227.55
2023-05-04T07:37:24.580Z,226.50
2023-05-04T07:39:51.710Z,233.97
2023-05-04T07:42:18.746Z,231.83
2023-05-04T07:44:46.113Z,235.30
2023-05-04T07:47:13.087Z,225.45
2023-05-04T07:49:40.080Z,213.88
2023-05-04T07:52:07.142Z,226.90
2023-05-04T07:54:34.173Z,223.23
2023-05-04T07:57:04.461Z,217.40
2023-05-04T07:59:32.087Z,214.48
2023-05-04T08:01:59.730Z,220.88
2023-05-04T08:04:26.751Z,219.87
2023-05-04T08:06:54.309Z,215.32
2023-05-04T08:09:21.302Z,211.98
2023-05-04T08:11:49.185Z,214.18
2023-05-04T08:14:16.202Z,223.18
2023-05-04T08:16:43.624Z,216.88
2023-05-04T08:19:11.383Z,214.75
2023-05-04T08:21:40.289Z,214.85
2023-05-04T08:24:07.616Z,221.73
2023-05-04T08:26:38.414Z,223.63
2023-05-04T08:29:10.540Z,234.13
2023-05-04T08:31:38.017Z,226.23
2023-05-04T08:34:05.583Z,225.93
2023-05-04T08:36:32.795Z,229.85
2023-05-04T08:38:59.848Z,228.43
2023-05-04T08:41:26.979Z,225.38
2023-05-04T08:43:54.440Z,225.75
2023-05-04T08:46:21.478Z,216.95
2023-05-04T08:48:48.622Z,215.13
2023-05-04T08:51:16.081Z,227.77
2023-05-04T08:53:48.237Z,241.25
2023-05-04T08:56:16.711Z,238.75
2023-05-04T08:58:50.869Z,219.55
2023-05-04T09:01:19.735Z,216.68
2023-05-04T09:03:49.152Z,227.02
2023-05-04T09:06:17.696Z,215.80
2023-05-04T09:08:44.648Z,221.38
2023-05-04T09:11:11.654Z,222.63
2023-05-04T09:13:38.770Z,219.60
2023-05-04T09:16:06.352Z,223.60
2023-05-04T09:18:51.705Z,219.27
2023-05-04T09:21:30.027Z,216.75
2023-05-04T09:23:57.943Z,223.93
2023-05-04T09:26:32.819Z,216.70
2023-05-04T09:29:15.841Z,219.80
2023-05-04T09:31:50.973Z,222.43
2023-05-04T09:34:22.391Z,218.27
2023-05-04T09:37:03.194Z,221.60
2023-05-04T09:39:30.631Z,227.70
2023-05-04T09:41:57.711Z,227.32
2023-05-04T09:44:28.227Z,223.65
2023-05-04T09:46:58.599Z,228.60
2023-05-04T09:49:37.328Z,221.40
2023-05-04T09:52:06.957Z,218.88
2023-05-04T09:54:35.832Z,229.80
2023-05-04T09:57:16.454Z,232.70
2023-05-04T09:59:43.568Z,225.25
2023-05-04T10:02:21.918Z,222.65
2023-05-04T10:04:51.838Z,218.77
2023-05-04T10:07:20.832Z,221.52
2023-05-04T10:09:50.276Z,212.77
2023-05-04T10:12:17.899Z,217.55
2023-05-04T10:14:46.903Z,220.23
2023-05-04T10:17:39.797Z,229.43
2023-05-04T10:20:39.191Z,224.13
2023-05-04T10:23:59.188Z,219.30
2023-05-04T10:26:59.458Z,227.93
2023-05-04T10:29:29.476Z,224.25
2023-05-04T10:31:57.011Z,222.65
2023-05-04T10:34:33.078Z,224.20
2023-05-04T10:37:01.737Z,226.30
2023-05-04T10:39:32.604Z,221.77
2023-05-04T10:42:01.567Z,223.15
2023-05-04T10:44:53.339Z,225.13
2023-05-04T10:47:32.573Z,223.15
2023-05-04T10:50:13.551Z,229.63
2023-05-04T10:52:53.589Z,225.80
2023-05-04T10:55:22.014Z,226.30
2023-05-04T10:57:56.236Z,226.05
2023-05-04T11:00:31.188Z,219.85
2023-05-04T11:03:04.036Z,221.77
2023-05-04T11:05:46.940Z,222.35
2023-05-04T11:08:27.140Z,222.00
2023-05-04T11:11:07.677Z,221.82
2023-05-04T11:13:39.638Z,221.23
2023-05-04T11:16:06.877Z,220.07
2023-05-04T11:18:35.382Z,219.93
2023-05-04T11:21:02.632Z,215.35
2023-05-04T11:23:30.293Z,213.68
2023-05-04T11:25:57.362Z,207.55
2023-05-04T11:28:38.045Z,222.27
2023-05-04T11:31:19.333Z,208.38
2023-05-04T11:33:52.348Z,216.00
2023-05-04T11:36:21.016Z,205.90
2023-05-04T11:38:48.332Z,206.23
2023-05-04T11:41:15.433Z,210.80
2023-05-04T11:43:45.212Z,203.73
2023-05-04T11:46:13.558Z,206.18
2023-05-04T11:48:41.006Z,208.35
2023-05-04T11:51:08.062Z,219.90
2023-05-04T11:53:39.782Z,217.52
2023-05-04T11:56:10.988Z,215.48
2023-05-04T11:58:38.276Z,214.68
2023-05-04T12:01:05.981Z,215.25
2023-05-04T12:03:52.122Z,211.02
2023-05-04T12:06:30.315Z,212.77
2023-05-04T12:09:06.037Z,216.23
2023-05-04T12:11:34.280Z,217.60
2023-05-04T12:14:15.050Z,221.25
2023-05-04T12:16:42.935Z,219.23
2023-05-04T12:19:13.005Z,221.65
2023-05-04T12:21:53.120Z,218.13
2023-05-04T12:24:24.567Z,218.95
2023-05-04T12:26:51.634Z,221.07
2023-05-04T12:29:18.878Z,224.13
2023-05-04T12:31:46.079Z,223.95
2023-05-04T12:34:13.125Z,226.02
2023-05-04T12:36:40.415Z,229.73
2023-05-04T12:39:07.402Z,219.95
2023-05-04T12:41:34.525Z,218.55
2023-05-04T12:44:01.583Z,216.02
2023-05-04T12:46:28.584Z,218.30
2023-05-04T12:48:56.427Z,218.10
2023-05-04T12:51:23.390Z,218.45
2023-05-04T12:53:50.921Z,218.25
2023-05-04T12:56:17.844Z,220.45
2023-05-04T12:58:44.809Z,219.75
2023-05-04T13:01:11.807Z,216.60
2023-05-04T13:03:38.938Z,215.02
2023-05-04T13:06:06.318Z,219.90
2023-05-04T13:08:33.634Z,228.45
2023-05-04T13:11:00.845Z,218.23
2023-05-04T13:13:28.564Z,224.07
2023-05-04T13:15:56.433Z,217.65
2023-05-04T13:18:27.176Z,225.38
2023-05-04T13:20:55.724Z,222.95
2023-05-04T13:23:23.521Z,218.15
2023-05-04T13:25:51.404Z,218.77
2023-05-04T13:28:19.052Z,224.63
2023-05-04T13:30:46.416Z,219.00
2023-05-04T13:33:27.999Z,222.35
2023-05-04T13:36:01.847Z,221.50
2023-05-04T13:38:28.973Z,225.45
2023-05-04T13:40:56.386Z,215.00
2023-05-04T13:43:23.738Z,232.02
2023-05-04T13:45:51.492Z,236.30
2023-05-04T13:48:18.687Z,232.48
2023-05-04T13:50:45.990Z,229.85
2023-05-04T13:53:13.012Z,220.85
2023-05-04T13:55:39.969Z,219.57
2023-05-04T13:58:07.348Z,218.73
2023-05-04T14:00:34.498Z,228.05
2023-05-04T14:03:01.622Z,232.98
2023-05-04T14:05:29.072Z,231.82
2023-05-04T14:07:56.012Z,225.77
2023-05-04T14:10:23.146Z,228.60
2023-05-04T14:12:50.128Z,232.23
2023-05-04T14:15:17.396Z,226.57
2023-05-04T14:17:44.314Z,229.18
2023-05-04T14:20:12.199Z,230.32
2023-05-04T14:22:41.236Z,221.10
2023-05-04T14:25:09.095Z,218.68
2023-05-04T14:27:36.265Z,226.43
2023-05-04T14:30:05.033Z,224.68
2023-05-04T14:32:32.156Z,242.07
2023-05-04T14:35:08.917Z,230.50
2023-05-04T14:37:39.115Z,232.15
2023-05-04T14:40:08.645Z,224.93
2023-05-04T14:42:36.877Z,224.20
2023-05-04T14:45:05.279Z,228.07
2023-05-04T14:47:33.900Z,222.65
2023-05-04T14:50:04.118Z,223.55
2023-05-04T14:52:31.611Z,234.80
2023-05-04T14:54:58.556Z,229.07
2023-05-04T14:57:25.483Z,229.07
2023-05-04T14:59:52.568Z,231.45
2023-05-04T15:02:19.560Z,225.15
2023-05-04T15:04:47.089Z,229.80
2023-05-04T15:07:20.412Z,235.38
2023-05-04T15:09:47.381Z,298.48
2023-05-04T15:12:14.348Z,300.75
2023-05-04T15:14:41.371Z,220.50
2023-05-04T15:17:08.344Z,236.65
2023-05-04T15:19:39.359Z,228.10
2023-05-04T15:22:07.453Z,236.65
2023-05-04T15:24:34.537Z,237.20
2023-05-04T15:27:04.807Z,232.10
2023-05-04T15:29:31.961Z,338.13
2023-05-04T15:31:58.927Z,221.15
2023-05-04T15:34:26.133Z,231.90
2023-05-04T15:36:53.109Z,226.27
2023-05-04T15:39:20.061Z,226.55
2023-05-04T15:41:47.257Z,225.48
2023-05-04T15:44:14.386Z,224.60
2023-05-04T15:46:41.473Z,217.55
2023-05-04T15:49:09.164Z,227.30
2023-05-04T15:51:36.172Z,227.10
2023-05-04T15:54:03.879Z,229.27
2023-05-04T15:56:30.977Z,245.50
2023-05-04T15:58:57.889Z,224.23
2023-05-04T16:01:25.350Z,231.18
2023-05-04T16:03:55.588Z,234.23
2023-05-04T16:06:23.721Z,222.25
2023-05-04T16:08:51.043Z,225.52
2023-05-04T16:11:18.143Z,225.90
2023-05-04T16:13:45.150Z,228.60
2023-05-04T16:16:12.362Z,224.77
2023-05-04T16:18:39.623Z,229.45
2023-05-04T16:21:06.621Z,229.63
2023-05-04T16:23:33.610Z,225.93
2023-05-04T16:26:00.833Z,223.00
2023-05-04T16:28:28.540Z,225.77
2023-05-04T16:30:55.558Z,219.57
2023-05-04T16:33:22.518Z,215.07
2023-05-04T16:35:49.473Z,222.05
2023-05-04T16:38:16.784Z,222.63
2023-05-04T16:40:43.842Z,221.68
2023-05-04T16:43:10.771Z,224.05
2023-05-04T16:45:38.225Z,227.20
2023-05-04T16:48:06.638Z,230.68
2023-05-04T16:50:33.891Z,218.05
2023-05-04T16:53:01.050Z,219.90
2023-05-04T16:55:28.125Z,231.98
2023-05-04T16:57:59.398Z,225.27
2023-05-04T17:00:26.458Z,227.23
2023-05-04T17:02:53.579Z,224.90
2023-05-04T17:05:21.148Z,224.85
2023-05-04T17:07:48.509Z,223.98
2023-05-04T17:10:15.654Z,223.07
2023-05-04T17:12:42.762Z,222.65
2023-05-04T17:15:11.472Z,224.98
2023-05-04T17:17:38.512Z,225.68
2023-05-04T17:20:06.714Z,229.00
2023-05-04T17:22:33.871Z,228.60
2023-05-04T17:25:00.790Z,226.57
2023-05-04T17:27:27.842Z,227.70
2023-05-04T17:29:54.732Z,238.45
2023-05-04T17:32:22.014Z,238.10
2023-05-04T17:34:49.038Z,237.63
2023-05-04T17:37:16.013Z,225.95
2023-05-04T17:39:43.114Z,262.40
2023-05-04T17:42:12.198Z,228.60
2023-05-04T17:44:48.723Z,228.65
2023-05-04T17:47:15.670Z,229.00
2023-05-04T17:49:42.616Z,231.52
2023-05-04T17:52:10.505Z,224.73
2023-05-04T17:54:39.126Z,227.00
2023-05-04T17:57:06.530Z,237.73
2023-05-04T17:59:34.244Z,241.60
2023-05-04T18:02:01.412Z,127.90
2023-05-04T18:04:31.259Z,160.68
2023-05-04T18:06:58.809Z,167.68
2023-05-04T18:09:25.745Z,155.32
2023-05-04T18:11:52.640Z,164.18
2023-05-04T18:14:19.590Z,183.02
2023-05-04T18:16:46.578Z,179.63
2023-05-04T18:19:13.545Z,177.70
2023-05-04T18:21:40.638Z,199.05
2023-05-04T18:24:08.285Z,220.00
2023-05-04T18:26:35.753Z,242.25
2023-05-04T18:29:15.069Z,218.90
2023-05-04T18:31:45.400Z,248.45
2023-05-04T18:34:12.549Z,226.43
2023-05-04T18:36:39.527Z,223.27
2023-05-04T18:39:06.497Z,219.48
2023-05-04T18:41:33.528Z,228.05
2023-05-04T18:44:15.019Z,231.38
2023-05-04T18:46:42.053Z,224.20
2023-05-04T18:49:09.204Z,218.20
2023-05-04T18:51:36.201Z,236.52
2023-05-04T18:54:03.141Z,253.88
2023-05-04T18:56:30.083Z,240.13
2023-05-04T18:58:57.087Z,240.60
2023-05-04T19:01:24.144Z,288.00
2023-05-04T19:03:51.215Z,242.88
2023-05-04T19:06:18.245Z,254.98
2023-05-04T19:08:45.259Z,246.63
2023-05-04T19:11:12.179Z,345.35
2023-05-04T19:13:39.115Z,253.00
2023-05-04T19:16:06.600Z,247.68
2023-05-04T19:18:34.458Z,242.85
2023-05-04T19:21:05.896Z,240.45
2023-05-04T19:23:32.998Z,243.32
2023-05-04T19:26:00.091Z,235.23
2023-05-04T19:28:27.127Z,242.80
2023-05-04T19:30:54.206Z,252.05
2023-05-04T19:33:21.667Z,236.23
2023-05-04T19:35:49.299Z,226.90
2023-05-04T19:38:16.239Z,222.02
2023-05-04T19:40:43.236Z,224.68
2023-05-04T19:43:10.186Z,213.90
2023-05-04T19:45:37.182Z,230.30
2023-05-04T19:48:04.878Z,227.77
2023-05-04T19:50:32.029Z,221.65
2023-05-04T19:52:58.998Z,221.60
2023-05-04T19:55:26.035Z,231.95
2023-05-04T19:57:53.072Z,231.73
2023-05-04T20:00:20.073Z,223.85
2023-05-04T20:02:47.218Z,226.20
2023-05-04T20:05:14.470Z,221.43
2023-05-04T20:07:41.961Z,219.95
2023-05-04T20:10:09.280Z,218.75
2023-05-04T20:12:36.470Z,224.43
2023-05-04T20:15:04.450Z,221.43
2023-05-04T20:17:31.472Z,217.75
2023-05-04T20:19:58.492Z,221.82
2023-05-04T20:22:25.453Z,220.80
2023-05-04T20:24:52.567Z,218.50
2023-05-04T20:27:19.474Z,226.55
2023-05-04T20:29:46.520Z,219.90
2023-05-04T20:32:13.649Z,222.77
2023-05-04T20:34:43.016Z,230.07
2023-05-04T20:37:10.095Z,221.75
2023-05-04T20:39:37.032Z,223.68
2023-05-04T20:42:05.628Z,218.80
2023-05-04T20:44:33.428Z,222.13
2023-05-04T20:47:00.449Z,224.55
2023-05-04T20:49:27.445Z,216.90
2023-05-04T20:51:54.369Z,221.38
2023-05-04T20:54:21.421Z,216.63
2023-05-04T20:56:48.339Z,219.00
2023-05-04T20:59:15.363Z,221.15
2023-05-04T21:01:42.384Z,226.13
2023-05-04T21:04:09.380Z,221.48
2023-05-04T21:06:36.469Z,217.68
2023-05-04T21:09:04.381Z,221.48
2023-05-04T21:11:31.447Z,220.75
2023-05-04T21:13:58.457Z,223.52
2023-05-04T21:16:25.767Z,219.10
2023-05-04T21:18:52.761Z,220.52
2023-05-04T21:21:19.731Z,219.35
2023-05-04T21:23:46.681Z,211.73
2023-05-04T21:26:13.720Z,218.00
2023-05-04T21:28:40.642Z,219.43
2023-05-04T21:31:08.817Z,212.57
2023-05-04T21:33:36.376Z,220.70
2023-05-04T21:36:16.291Z,219.18
2023-05-04T21:38:43.567Z,221.88
2023-05-04T21:41:15.435Z,218.13
2023-05-04T21:43:43.545Z,218.35
2023-05-04T21:46:12.055Z,214.27
2023-05-04T21:48:39.698Z,216.73
2023-05-04T21:51:06.761Z,215.63
2023-05-04T21:53:33.773Z,213.10
2023-05-04T21:56:02.039Z,216.02
2023-05-04T21:58:29.001Z,212.48
2023-05-04T22:00:56.153Z,213.63
2023-05-04T22:03:23.256Z,218.13
2023-05-04T22:05:55.172Z,218.83
2023-05-04T22:08:22.316Z,214.98
2023-05-04T22:10:53.730Z,215.63
2023-05-04T22:13:21.213Z,220.13
2023-05-04T22:15:50.626Z,218.15
2023-05-04T22:18:18.510Z,215.35
2023-05-04T22:20:46.032Z,213.88
2023-05-04T22:23:13.584Z,219.50
2023-05-04T22:25:40.905Z,214.82
2023-05-04T22:28:07.877Z,219.98
2023-05-04T22:30:34.880Z,217.17
2023-05-04T22:33:02.055Z,216.52
2023-05-04T22:35:31.247Z,216.93
2023-05-04T22:37:58.306Z,216.50
2023-05-04T22:40:25.533Z,217.48
2023-05-04T22:42:52.672Z,215.43
2023-05-04T22:45:19.805Z,217.48
2023-05-04T22:47:47.141Z,217.68
2023-05-04T22:50:14.451Z,209.93
2023-05-04T22:52:41.646Z,215.23
2023-05-04T22:55:09.346Z,213.15
2023-05-04T22:57:36.759Z,218.53
2023-05-04T23:00:08.218Z,217.07
2023-05-04T23:02:36.081Z,213.43
2023-05-04T23:05:03.972Z,212.27
2023-05-04T23:07:31.117Z,216.10
2023-05-04T23:09:58.212Z,209.80
2023-05-04T23:12:26.845Z,216.77
2023-05-04T23:14:54.648Z,215.37
2023-05-04T23:17:22.128Z,211.75
2023-05-04T23:19:49.104Z,219.20
2023-05-04T23:22:16.467Z,211.47
2023-05-04T23:24:43.383Z,216.67
2023-05-04T23:27:11.426Z,215.20
2023-05-04T23:29:38.695Z,215.17
2023-05-04T23:32:06.354Z,214.67
2023-05-04T23:34:33.479Z,209.90
2023-05-04T23:37:00.598Z,212.73
2023-05-04T23:39:27.714Z,216.87
2023-05-04T23:41:54.671Z,210.53
2023-05-04T23:44:21.766Z,212.30
2023-05-04T23:46:48.884Z,216.43
2023-05-04T23:49:16.509Z,215.07
2023-05-04T23:51:43.680Z,218.87
2023-05-04T23:54:10.978Z,217.57
2023-05-04T23:56:37.939Z,217.27
2023-05-04T23:59:04.880Z,217.40
